sensor_id;sensor_type;location;lat;lon;timestamp;temperature;humidity
356;DHT22;62514;48.112;11.566;2023-09-07T00:00:59;13.50;41.60
356;DHT22;62514;48.112;11.566;2023-09-07T00:03:26;13.50;41.30
356;DHT22;62514;48.112;11.566;2023-09-07T00:05:52;13.50;41.90
356;DHT22;62514;48.112;11.566;2023-09-07T00:08:17;13.50;41.10
356;DHT22;62514;48.112;11.566;2023-09-07T00:10:42;13.50;41.30
356;DHT22;62514;48.112;11.566;2023-09-07T00:13:08;13.50;41.40
356;DHT22;62514;48.112;11.566;2023-09-07T00:15:37;13.50;41.00
356;DHT22;62514;48.112;11.566;2023-09-07T00:18:03;13.50;40.60
356;DHT22;62514;48.112;11.566;2023-09-07T00:20:28;13.50;40.40
356;DHT22;62514;48.112;11.566;2023-09-07T00:22:54;13.50;40.50
356;DHT22;62514;48.112;11.566;2023-09-07T00:25:19;13.40;40.60
356;DHT22;62514;48.112;11.566;2023-09-07T00:27:46;13.40;41.60
356;DHT22;62514;48.112;11.566;2023-09-07T00:30:11;13.30;42.30
356;DHT22;62514;48.112;11.566;2023-09-07T00:32:37;13.30;42.90
356;DHT22;62514;48.112;11.566;2023-09-07T00:35:03;13.20;44.00
356;DHT22;62514;48.112;11.566;2023-09-07T00:37:29;13.20;44.00
356;DHT22;62514;48.112;11.566;2023-09-07T00:39:54;13.20;44.40
356;DHT22;62514;48.112;11.566;2023-09-07T00:42:20;13.20;44.70
356;DHT22;62514;48.112;11.566;2023-09-07T00:44:45;13.20;44.50
356;DHT22;62514;48.112;11.566;2023-09-07T00:47:11;13.20;44.30
356;DHT22;62514;48.112;11.566;2023-09-07T00:49:37;13.20;43.90
356;DHT22;62514;48.112;11.566;2023-09-07T00:52:04;13.10;44.00
356;DHT22;62514;48.112;11.566;2023-09-07T00:54:30;13.10;44.40
356;DHT22;62514;48.112;11.566;2023-09-07T00:56:55;13.10;44.60
356;DHT22;62514;48.112;11.566;2023-09-07T00:59:21;13.00;44.90
356;DHT22;62514;48.112;11.566;2023-09-07T01:01:47;13.10;45.20
356;DHT22;62514;48.112;11.566;2023-09-07T01:04:14;13.00;45.10
356;DHT22;62514;48.112;11.566;2023-09-07T01:06:43;13.00;45.30
356;DHT22;62514;48.112;11.566;2023-09-07T01:09:11;13.00;45.30
356;DHT22;62514;48.112;11.566;2023-09-07T01:11:39;13.00;45.20
356;DHT22;62514;48.112;11.566;2023-09-07T01:14:05;13.00;45.30
356;DHT22;62514;48.112;11.566;2023-09-07T01:16:31;13.00;45.00
356;DHT22;62514;48.112;11.566;2023-09-07T01:18:59;12.90;44.60
356;DHT22;62514;48.112;11.566;2023-09-07T01:21:25;12.90;44.20
356;DHT22;62514;48.112;11.566;2023-09-07T01:23:51;12.90;44.40
356;DHT22;62514;48.112;11.566;2023-09-07T01:26:17;12.90;44.10
356;DHT22;62514;48.112;11.566;2023-09-07T01:28:43;12.90;44.10
356;DHT22;62514;48.112;11.566;2023-09-07T01:31:08;12.90;43.90
356;DHT22;62514;48.112;11.566;2023-09-07T01:33:34;12.90;43.50
356;DHT22;62514;48.112;11.566;2023-09-07T01:36:00;12.90;43.20
356;DHT22;62514;48.112;11.566;2023-09-07T01:38:26;12.90;43.20
356;DHT22;62514;48.112;11.566;2023-09-07T01:40:51;12.90;42.10
356;DHT22;62514;48.112;11.566;2023-09-07T01:43:17;12.90;42.10
356;DHT22;62514;48.112;11.566;2023-09-07T01:45:42;12.80;42.00
356;DHT22;62514;48.112;11.566;2023-09-07T01:48:08;12.80;42.00
356;DHT22;62514;48.112;11.566;2023-09-07T01:50:35;12.80;42.00
356;DHT22;62514;48.112;11.566;2023-09-07T01:53:01;12.70;42.00
356;DHT22;62514;48.112;11.566;2023-09-07T01:55:28;12.70;42.20
356;DHT22;62514;48.112;11.566;2023-09-07T01:57:54;12.70;42.60
356;DHT22;62514;48.112;11.566;2023-09-07T02:00:19;12.70;42.10
356;DHT22;62514;48.112;11.566;2023-09-07T02:02:45;12.60;42.20
356;DHT22;62514;48.112;11.566;2023-09-07T02:05:10;12.60;42.90
356;DHT22;62514;48.112;11.566;2023-09-07T02:07:36;12.60;43.30
356;DHT22;62514;48.112;11.566;2023-09-07T02:10:02;12.60;43.10
356;DHT22;62514;48.112;11.566;2023-09-07T02:12:29;12.60;43.00
356;DHT22;62514;48.112;11.566;2023-09-07T02:14:55;12.70;42.80
356;DHT22;62514;48.112;11.566;2023-09-07T02:17:21;12.60;42.20
356;DHT22;62514;48.112;11.566;2023-09-07T02:19:47;12.60;42.60
356;DHT22;62514;48.112;11.566;2023-09-07T02:22:12;12.50;42.20
356;DHT22;62514;48.112;11.566;2023-09-07T02:24:38;12.50;42.90
356;DHT22;62514;48.112;11.566;2023-09-07T02:27:04;12.40;43.40
356;DHT22;62514;48.112;11.566;2023-09-07T02:29:29;12.40;44.00
356;DHT22;62514;48.112;11.566;2023-09-07T02:31:55;12.30;44.30
356;DHT22;62514;48.112;11.566;2023-09-07T02:34:22;12.30;44.50
356;DHT22;62514;48.112;11.566;2023-09-07T02:36:47;12.20;44.80
356;DHT22;62514;48.112;11.566;2023-09-07T02:39:13;12.20;45.30
356;DHT22;62514;48.112;11.566;2023-09-07T02:41:39;12.20;45.40
356;DHT22;62514;48.112;11.566;2023-09-07T02:44:05;12.10;45.70
356;DHT22;62514;48.112;11.566;2023-09-07T02:46:30;12.20;45.90
356;DHT22;62514;48.112;11.566;2023-09-07T02:48:59;12.20;45.40
356;DHT22;62514;48.112;11.566;2023-09-07T02:51:25;12.20;45.00
356;DHT22;62514;48.112;11.566;2023-09-07T02:53:51;12.20;44.30
356;DHT22;62514;48.112;11.566;2023-09-07T02:56:16;12.10;44.10
356;DHT22;62514;48.112;11.566;2023-09-07T02:58:42;12.00;44.30
356;DHT22;62514;48.112;11.566;2023-09-07T03:01:08;12.00;44.80
356;DHT22;62514;48.112;11.566;2023-09-07T03:03:37;12.00;44.80
356;DHT22;62514;48.112;11.566;2023-09-07T03:06:13;12.00;44.50
356;DHT22;62514;48.112;11.566;2023-09-07T03:08:40;11.90;43.90
356;DHT22;62514;48.112;11.566;2023-09-07T03:11:06;11.90;45.10
356;DHT22;62514;48.112;11.566;2023-09-07T03:13:32;11.90;44.80
356;DHT22;62514;48.112;11.566;2023-09-07T03:15:59;11.90;45.30
356;DHT22;62514;48.112;11.566;2023-09-07T03:18:25;12.00;44.40
356;DHT22;62514;48.112;11.566;2023-09-07T03:20:52;11.90;44.50
356;DHT22;62514;48.112;11.566;2023-09-07T03:23:18;11.90;43.50
356;DHT22;62514;48.112;11.566;2023-09-07T03:25:44;11.80;43.70
356;DHT22;62514;48.112;11.566;2023-09-07T03:28:10;11.80;44.10
356;DHT22;62514;48.112;11.566;2023-09-07T03:30:35;11.70;44.80
356;DHT22;62514;48.112;11.566;2023-09-07T03:33:01;11.70;45.10
356;DHT22;62514;48.112;11.566;2023-09-07T03:35:28;11.70;45.50
356;DHT22;62514;48.112;11.566;2023-09-07T03:37:54;11.70;45.90
356;DHT22;62514;48.112;11.566;2023-09-07T03:40:20;11.70;45.80
356;DHT22;62514;48.112;11.566;2023-09-07T03:42:45;11.60;45.90
356;DHT22;62514;48.112;11.566;2023-09-07T03:45:12;11.60;45.90
356;DHT22;62514;48.112;11.566;2023-09-07T03:47:37;11.60;45.90
356;DHT22;62514;48.112;11.566;2023-09-07T03:50:03;11.60;45.80
356;DHT22;62514;48.112;11.566;2023-09-07T03:52:29;11.60;45.50
356;DHT22;62514;48.112;11.566;2023-09-07T03:54:55;11.70;45.70
356;DHT22;62514;48.112;11.566;2023-09-07T03:57:21;11.70;45.30
356;DHT22;62514;48.112;11.566;2023-09-07T03:59:47;11.80;44.70
356;DHT22;62514;48.112;11.566;2023-09-07T04:02:13;11.70;43.30
356;DHT22;62514;48.112;11.566;2023-09-07T04:04:40;11.70;43.70
356;DHT22;62514;48.112;11.566;2023-09-07T04:07:06;11.60;43.70
356;DHT22;62514;48.112;11.566;2023-09-07T04:09:32;11.60;44.10
356;DHT22;62514;48.112;11.566;2023-09-07T04:11:57;11.50;44.50
356;DHT22;62514;48.112;11.566;2023-09-07T04:14:23;11.50;45.10
356;DHT22;62514;48.112;11.566;2023-09-07T04:16:48;11.40;45.40
356;DHT22;62514;48.112;11.566;2023-09-07T04:19:16;11.40;45.40
356;DHT22;62514;48.112;11.566;2023-09-07T04:21:41;11.50;45.70
356;DHT22;62514;48.112;11.566;2023-09-07T04:24:07;11.50;45.50
356;DHT22;62514;48.112;11.566;2023-09-07T04:26:36;11.50;44.90
356;DHT22;62514;48.112;11.566;2023-09-07T04:29:03;11.50;45.20
356;DHT22;62514;48.112;11.566;2023-09-07T04:31:29;11.50;44.30
356;DHT22;62514;48.112;11.566;2023-09-07T04:33:55;11.50;43.80
356;DHT22;62514;48.112;11.566;2023-09-07T04:36:21;11.50;43.80
356;DHT22;62514;48.112;11.566;2023-09-07T04:38:46;11.40;43.60
356;DHT22;62514;48.112;11.566;2023-09-07T04:41:13;11.50;43.70
356;DHT22;62514;48.112;11.566;2023-09-07T04:43:41;11.50;43.90
356;DHT22;62514;48.112;11.566;2023-09-07T04:46:12;11.50;43.80
356;DHT22;62514;48.112;11.566;2023-09-07T04:48:38;11.50;43.20
356;DHT22;62514;48.112;11.566;2023-09-07T04:51:05;11.40;43.20
356;DHT22;62514;48.112;11.566;2023-09-07T04:53:33;11.30;43.60
356;DHT22;62514;48.112;11.566;2023-09-07T04:56:01;11.30;44.20
356;DHT22;62514;48.112;11.566;2023-09-07T04:58:27;11.30;44.70
356;DHT22;62514;48.112;11.566;2023-09-07T05:00:53;11.30;44.90
356;DHT22;62514;48.112;11.566;2023-09-07T05:03:19;11.30;45.20
356;DHT22;62514;48.112;11.566;2023-09-07T05:05:44;11.30;45.40
356;DHT22;62514;48.112;11.566;2023-09-07T05:08:11;11.30;45.30
356;DHT22;62514;48.112;11.566;2023-09-07T05:10:37;11.30;45.40
356;DHT22;62514;48.112;11.566;2023-09-07T05:13:03;11.40;45.50
356;DHT22;62514;48.112;11.566;2023-09-07T05:15:29;11.40;45.30
356;DHT22;62514;48.112;11.566;2023-09-07T05:17:55;11.40;45.10
356;DHT22;62514;48.112;11.566;2023-09-07T05:20:21;11.50;44.90
356;DHT22;62514;48.112;11.566;2023-09-07T05:22:47;11.60;45.00
356;DHT22;62514;48.112;11.566;2023-09-07T05:25:16;11.70;44.80
356;DHT22;62514;48.112;11.566;2023-09-07T05:27:41;11.70;44.30
356;DHT22;62514;48.112;11.566;2023-09-07T05:30:07;11.80;43.50
356;DHT22;62514;48.112;11.566;2023-09-07T05:32:33;11.80;43.20
356;DHT22;62514;48.112;11.566;2023-09-07T05:34:58;11.80;43.30
356;DHT22;62514;48.112;11.566;2023-09-07T05:37:24;11.80;43.80
356;DHT22;62514;48.112;11.566;2023-09-07T05:39:50;11.80;43.90
356;DHT22;62514;48.112;11.566;2023-09-07T05:42:16;11.90;44.20
356;DHT22;62514;48.112;11.566;2023-09-07T05:44:41;11.90;44.20
356;DHT22;62514;48.112;11.566;2023-09-07T05:47:07;12.00;44.30
356;DHT22;62514;48.112;11.566;2023-09-07T05:49:32;12.10;44.00
356;DHT22;62514;48.112;11.566;2023-09-07T05:51:58;12.20;43.80
356;DHT22;62514;48.112;11.566;2023-09-07T05:54:24;12.40;43.80
356;DHT22;62514;48.112;11.566;2023-09-07T05:56:49;12.50;43.40
356;DHT22;62514;48.112;11.566;2023-09-07T05:59:15;12.60;42.50
356;DHT22;62514;48.112;11.566;2023-09-07T06:01:41;12.80;41.50
356;DHT22;62514;48.112;11.566;2023-09-07T06:04:07;12.90;40.90
356;DHT22;62514;48.112;11.566;2023-09-07T06:06:32;13.00;40.70
356;DHT22;62514;48.112;11.566;2023-09-07T06:09:03;13.10;39.80
356;DHT22;62514;48.112;11.566;2023-09-07T06:11:29;13.30;39.20
356;DHT22;62514;48.112;11.566;2023-09-07T06:13:55;13.30;39.20
356;DHT22;62514;48.112;11.566;2023-09-07T06:16:21;13.30;39.60
356;DHT22;62514;48.112;11.566;2023-09-07T06:18:46;13.50;39.60
356;DHT22;62514;48.112;11.566;2023-09-07T06:21:12;13.60;39.30
356;DHT22;62514;48.112;11.566;2023-09-07T06:23:38;13.80;39.40
356;DHT22;62514;48.112;11.566;2023-09-07T06:26:04;13.90;39.10
356;DHT22;62514;48.112;11.566;2023-09-07T06:28:29;14.10;38.50
356;DHT22;62514;48.112;11.566;2023-09-07T06:30:55;14.30;38.10
356;DHT22;62514;48.112;11.566;2023-09-07T06:33:21;14.40;37.70
356;DHT22;62514;48.112;11.566;2023-09-07T06:35:46;14.50;37.90
356;DHT22;62514;48.112;11.566;2023-09-07T06:38:12;14.70;37.90
356;DHT22;62514;48.112;11.566;2023-09-07T06:40:37;14.90;37.60
356;DHT22;62514;48.112;11.566;2023-09-07T06:43:03;15.00;37.70
356;DHT22;62514;48.112;11.566;2023-09-07T06:45:36;15.20;37.20
356;DHT22;62514;48.112;11.566;2023-09-07T06:48:03;15.40;35.90
356;DHT22;62514;48.112;11.566;2023-09-07T06:50:29;15.60;34.30
356;DHT22;62514;48.112;11.566;2023-09-07T06:52:54;15.80;32.80
356;DHT22;62514;48.112;11.566;2023-09-07T06:55:20;16.10;32.80
356;DHT22;62514;48.112;11.566;2023-09-07T06:57:46;16.20;30.50
356;DHT22;62514;48.112;11.566;2023-09-07T07:00:12;16.50;29.40
356;DHT22;62514;48.112;11.566;2023-09-07T07:02:37;16.60;27.40
356;DHT22;62514;48.112;11.566;2023-09-07T07:05:04;16.70;26.60
356;DHT22;62514;48.112;11.566;2023-09-07T07:07:30;16.80;25.70
356;DHT22;62514;48.112;11.566;2023-09-07T07:09:55;17.00;24.20
356;DHT22;62514;48.112;11.566;2023-09-07T07:12:21;17.10;23.90
356;DHT22;62514;48.112;11.566;2023-09-07T07:14:47;17.30;23.50
356;DHT22;62514;48.112;11.566;2023-09-07T07:17:12;17.40;21.80
356;DHT22;62514;48.112;11.566;2023-09-07T07:19:38;17.50;21.20
356;DHT22;62514;48.112;11.566;2023-09-07T07:22:03;17.60;20.00
356;DHT22;62514;48.112;11.566;2023-09-07T07:24:29;17.60;20.20
356;DHT22;62514;48.112;11.566;2023-09-07T07:26:55;17.80;20.20
356;DHT22;62514;48.112;11.566;2023-09-07T07:29:20;18.00;20.20
356;DHT22;62514;48.112;11.566;2023-09-07T07:31:46;18.10;18.90
356;DHT22;62514;48.112;11.566;2023-09-07T07:34:12;18.30;18.30
356;DHT22;62514;48.112;11.566;2023-09-07T07:36:38;18.40;18.20
356;DHT22;62514;48.112;11.566;2023-09-07T07:39:05;18.50;18.80
356;DHT22;62514;48.112;11.566;2023-09-07T07:41:32;18.70;18.60
356;DHT22;62514;48.112;11.566;2023-09-07T07:43:58;18.90;17.30
356;DHT22;62514;48.112;11.566;2023-09-07T07:46:23;19.10;16.10
356;DHT22;62514;48.112;11.566;2023-09-07T07:48:49;19.30;15.80
356;DHT22;62514;48.112;11.566;2023-09-07T07:51:14;19.50;15.50
356;DHT22;62514;48.112;11.566;2023-09-07T07:53:40;19.70;14.80
356;DHT22;62514;48.112;11.566;2023-09-07T07:56:14;19.80;14.20
356;DHT22;62514;48.112;11.566;2023-09-07T07:58:40;20.10;14.00
356;DHT22;62514;48.112;11.566;2023-09-07T08:01:16;20.20;13.30
356;DHT22;62514;48.112;11.566;2023-09-07T08:03:42;20.40;13.00
356;DHT22;62514;48.112;11.566;2023-09-07T08:06:09;20.50;11.90
356;DHT22;62514;48.112;11.566;2023-09-07T08:08:36;20.20;12.30
356;DHT22;62514;48.112;11.566;2023-09-07T08:11:01;20.10;12.80
356;DHT22;62514;48.112;11.566;2023-09-07T08:13:32;20.00;13.00
356;DHT22;62514;48.112;11.566;2023-09-07T08:15:58;20.00;14.80
356;DHT22;62514;48.112;11.566;2023-09-07T08:18:24;20.30;13.80
356;DHT22;62514;48.112;11.566;2023-09-07T08:20:50;20.30;12.90
356;DHT22;62514;48.112;11.566;2023-09-07T08:23:15;20.40;13.40
356;DHT22;62514;48.112;11.566;2023-09-07T08:25:41;20.60;12.80
356;DHT22;62514;48.112;11.566;2023-09-07T08:28:11;20.60;11.00
356;DHT22;62514;48.112;11.566;2023-09-07T08:30:37;20.40;11.40
356;DHT22;62514;48.112;11.566;2023-09-07T08:33:03;20.40;12.50
356;DHT22;62514;48.112;11.566;2023-09-07T08:35:30;20.50;11.80
356;DHT22;62514;48.112;11.566;2023-09-07T08:38:00;20.60;12.80
356;DHT22;62514;48.112;11.566;2023-09-07T08:40:29;20.80;12.40
356;DHT22;62514;48.112;11.566;2023-09-07T08:42:55;21.00;10.40
356;DHT22;62514;48.112;11.566;2023-09-07T08:45:23;21.00;10.40
356;DHT22;62514;48.112;11.566;2023-09-07T08:47:51;21.10;11.60
356;DHT22;62514;48.112;11.566;2023-09-07T08:50:17;21.30;10.50
356;DHT22;62514;48.112;11.566;2023-09-07T08:52:44;21.40;10.50
356;DHT22;62514;48.112;11.566;2023-09-07T08:55:12;21.40;9.90
356;DHT22;62514;48.112;11.566;2023-09-07T08:57:37;21.40;10.50
356;DHT22;62514;48.112;11.566;2023-09-07T09:00:03;21.30;10.50
356;DHT22;62514;48.112;11.566;2023-09-07T09:02:33;21.40;10.50
356;DHT22;62514;48.112;11.566;2023-09-07T09:05:01;21.30;9.90
356;DHT22;62514;48.112;11.566;2023-09-07T09:07:26;21.50;10.60
356;DHT22;62514;48.112;11.566;2023-09-07T09:10:01;21.70;9.90
356;DHT22;62514;48.112;11.566;2023-09-07T09:12:29;21.80;10.00
356;DHT22;62514;48.112;11.566;2023-09-07T09:14:55;21.80;9.50
356;DHT22;62514;48.112;11.566;2023-09-07T09:17:21;21.80;9.30
356;DHT22;62514;48.112;11.566;2023-09-07T09:19:49;22.00;9.10
356;DHT22;62514;48.112;11.566;2023-09-07T09:22:15;22.10;9.10
356;DHT22;62514;48.112;11.566;2023-09-07T09:24:41;22.40;8.20
356;DHT22;62514;48.112;11.566;2023-09-07T09:27:07;22.50;7.60
356;DHT22;62514;48.112;11.566;2023-09-07T09:29:32;22.50;7.60
356;DHT22;62514;48.112;11.566;2023-09-07T09:31:59;22.60;7.10
356;DHT22;62514;48.112;11.566;2023-09-07T09:34:25;22.80;6.50
356;DHT22;62514;48.112;11.566;2023-09-07T09:36:51;22.90;6.80
356;DHT22;62514;48.112;11.566;2023-09-07T09:39:24;23.10;6.20
356;DHT22;62514;48.112;11.566;2023-09-07T09:41:50;23.30;4.60
356;DHT22;62514;48.112;11.566;2023-09-07T09:44:16;23.30;5.40
356;DHT22;62514;48.112;11.566;2023-09-07T09:46:43;23.40;5.80
356;DHT22;62514;48.112;11.566;2023-09-07T09:49:10;23.60;5.30
356;DHT22;62514;48.112;11.566;2023-09-07T09:51:37;23.80;4.00
356;DHT22;62514;48.112;11.566;2023-09-07T09:54:04;23.80;3.40
356;DHT22;62514;48.112;11.566;2023-09-07T09:56:31;24.00;2.70
356;DHT22;62514;48.112;11.566;2023-09-07T09:58:57;24.20;2.70
356;DHT22;62514;48.112;11.566;2023-09-07T10:01:22;24.40;2.50
356;DHT22;62514;48.112;11.566;2023-09-07T10:03:49;24.60;1.60
356;DHT22;62514;48.112;11.566;2023-09-07T10:06:24;24.80;1.00
356;DHT22;62514;48.112;11.566;2023-09-07T10:09:01;24.80;1.60
356;DHT22;62514;48.112;11.566;2023-09-07T10:11:31;24.80;1.00
356;DHT22;62514;48.112;11.566;2023-09-07T10:14:01;24.50;1.00
356;DHT22;62514;48.112;11.566;2023-09-07T10:16:50;24.50;1.50
356;DHT22;62514;48.112;11.566;2023-09-07T10:19:25;24.80;1.00
356;DHT22;62514;48.112;11.566;2023-09-07T10:21:55;25.00;1.00
356;DHT22;62514;48.112;11.566;2023-09-07T10:24:28;25.20;1.00
356;DHT22;62514;48.112;11.566;2023-09-07T10:27:07;25.40;1.00
356;DHT22;62514;48.112;11.566;2023-09-07T10:29:50;25.20;1.00
356;DHT22;62514;48.112;11.566;2023-09-07T10:32:16;25.10;1.00
356;DHT22;62514;48.112;11.566;2023-09-07T10:34:42;25.30;1.00
356;DHT22;62514;48.112;11.566;2023-09-07T10:37:12;25.70;1.00
356;DHT22;62514;48.112;11.566;2023-09-07T10:39:39;25.90;1.00
356;DHT22;62514;48.112;11.566;2023-09-07T10:42:05;25.90;1.00
356;DHT22;62514;48.112;11.566;2023-09-07T10:44:31;26.20;1.00
356;DHT22;62514;48.112;11.566;2023-09-07T10:46:57;26.70;1.00
356;DHT22;62514;48.112;11.566;2023-09-07T10:49:23;27.10;1.00
356;DHT22;62514;48.112;11.566;2023-09-07T10:51:49;27.10;1.00
356;DHT22;62514;48.112;11.566;2023-09-07T10:54:22;27.70;1.00
356;DHT22;62514;48.112;11.566;2023-09-07T10:56:49;28.20;1.00
356;DHT22;62514;48.112;11.566;2023-09-07T10:59:16;28.60;1.00
356;DHT22;62514;48.112;11.566;2023-09-07T11:01:44;28.90;1.00
356;DHT22;62514;48.112;11.566;2023-09-07T11:04:11;29.00;1.00
356;DHT22;62514;48.112;11.566;2023-09-07T11:06:39;29.50;1.00
356;DHT22;62514;48.112;11.566;2023-09-07T11:09:05;29.70;1.00
356;DHT22;62514;48.112;11.566;2023-09-07T11:11:34;29.90;1.00
356;DHT22;62514;48.112;11.566;2023-09-07T11:14:02;29.50;1.00
356;DHT22;62514;48.112;11.566;2023-09-07T11:16:29;29.70;1.00
356;DHT22;62514;48.112;11.566;2023-09-07T11:18:54;30.10;1.00
356;DHT22;62514;48.112;11.566;2023-09-07T11:21:23;30.10;1.00
356;DHT22;62514;48.112;11.566;2023-09-07T11:23:48;30.30;1.00
356;DHT22;62514;48.112;11.566;2023-09-07T11:26:15;30.40;1.00
356;DHT22;62514;48.112;11.566;2023-09-07T11:28:46;30.10;1.00
356;DHT22;62514;48.112;11.566;2023-09-07T11:31:11;30.20;1.00
356;DHT22;62514;48.112;11.566;2023-09-07T11:33:37;30.00;1.00
356;DHT22;62514;48.112;11.566;2023-09-07T11:36:04;30.30;1.00
356;DHT22;62514;48.112;11.566;2023-09-07T11:38:35;30.70;1.00
356;DHT22;62514;48.112;11.566;2023-09-07T11:41:01;30.80;1.00
356;DHT22;62514;48.112;11.566;2023-09-07T11:43:27;30.50;1.00
356;DHT22;62514;48.112;11.566;2023-09-07T11:45:53;30.60;1.00
356;DHT22;62514;48.112;11.566;2023-09-07T11:48:18;30.60;1.00
356;DHT22;62514;48.112;11.566;2023-09-07T11:50:44;31.00;1.00
356;DHT22;62514;48.112;11.566;2023-09-07T11:53:10;31.50;1.00
356;DHT22;62514;48.112;11.566;2023-09-07T11:55:36;30.90;1.00
356;DHT22;62514;48.112;11.566;2023-09-07T11:58:03;31.00;1.00
356;DHT22;62514;48.112;11.566;2023-09-07T12:00:30;30.90;1.00
356;DHT22;62514;48.112;11.566;2023-09-07T12:02:57;30.80;1.00
356;DHT22;62514;48.112;11.566;2023-09-07T12:05:25;30.50;1.00
356;DHT22;62514;48.112;11.566;2023-09-07T12:07:51;30.70;1.00
356;DHT22;62514;48.112;11.566;2023-09-07T12:10:16;31.00;1.00
356;DHT22;62514;48.112;11.566;2023-09-07T12:12:43;31.40;1.00
356;DHT22;62514;48.112;11.566;2023-09-07T12:15:10;31.80;1.00
356;DHT22;62514;48.112;11.566;2023-09-07T12:17:39;31.80;1.00
356;DHT22;62514;48.112;11.566;2023-09-07T12:20:06;31.80;1.00
356;DHT22;62514;48.112;11.566;2023-09-07T12:22:35;31.10;1.00
356;DHT22;62514;48.112;11.566;2023-09-07T12:25:06;30.40;1.00
356;DHT22;62514;48.112;11.566;2023-09-07T12:27:35;30.70;1.00
356;DHT22;62514;48.112;11.566;2023-09-07T12:30:01;31.00;1.00
356;DHT22;62514;48.112;11.566;2023-09-07T12:32:28;31.30;1.00
356;DHT22;62514;48.112;11.566;2023-09-07T12:34:53;31.70;1.00
356;DHT22;62514;48.112;11.566;2023-09-07T12:37:19;32.10;1.00
356;DHT22;62514;48.112;11.566;2023-09-07T12:39:44;31.90;1.00
356;DHT22;62514;48.112;11.566;2023-09-07T12:42:10;31.80;1.00
356;DHT22;62514;48.112;11.566;2023-09-07T12:44:35;32.00;1.00
356;DHT22;62514;48.112;11.566;2023-09-07T12:47:01;32.10;1.00
356;DHT22;62514;48.112;11.566;2023-09-07T12:49:26;31.90;1.00
356;DHT22;62514;48.112;11.566;2023-09-07T12:51:52;32.10;1.00
356;DHT22;62514;48.112;11.566;2023-09-07T12:54:18;32.50;1.00
356;DHT22;62514;48.112;11.566;2023-09-07T12:56:44;32.90;1.00
356;DHT22;62514;48.112;11.566;2023-09-07T12:59:10;32.90;1.00
356;DHT22;62514;48.112;11.566;2023-09-07T13:01:36;32.70;1.00
356;DHT22;62514;48.112;11.566;2023-09-07T13:04:01;32.70;1.00
356;DHT22;62514;48.112;11.566;2023-09-07T13:06:28;32.80;1.00
356;DHT22;62514;48.112;11.566;2023-09-07T13:08:53;32.90;1.00
356;DHT22;62514;48.112;11.566;2023-09-07T13:11:19;32.60;1.00
356;DHT22;62514;48.112;11.566;2023-09-07T13:13:45;31.90;1.00
356;DHT22;62514;48.112;11.566;2023-09-07T13:16:10;32.20;1.00
356;DHT22;62514;48.112;11.566;2023-09-07T13:18:37;31.70;1.00
356;DHT22;62514;48.112;11.566;2023-09-07T13:21:03;31.60;1.00
356;DHT22;62514;48.112;11.566;2023-09-07T13:23:29;31.60;1.00
356;DHT22;62514;48.112;11.566;2023-09-07T13:25:55;31.60;1.00
356;DHT22;62514;48.112;11.566;2023-09-07T13:28:21;31.80;1.00
356;DHT22;62514;48.112;11.566;2023-09-07T13:30:49;31.40;1.00
356;DHT22;62514;48.112;11.566;2023-09-07T13:33:15;31.10;1.00
356;DHT22;62514;48.112;11.566;2023-09-07T13:35:41;31.20;1.00
356;DHT22;62514;48.112;11.566;2023-09-07T13:38:06;31.40;1.00
356;DHT22;62514;48.112;11.566;2023-09-07T13:40:32;31.60;1.00
356;DHT22;62514;48.112;11.566;2023-09-07T13:42:57;31.70;1.00
356;DHT22;62514;48.112;11.566;2023-09-07T13:45:23;31.20;1.00
356;DHT22;62514;48.112;11.566;2023-09-07T13:47:49;31.30;1.00
356;DHT22;62514;48.112;11.566;2023-09-07T13:50:15;31.30;1.00
356;DHT22;62514;48.112;11.566;2023-09-07T13:52:40;31.30;1.00
356;DHT22;62514;48.112;11.566;2023-09-07T13:55:06;31.30;1.00
356;DHT22;62514;48.112;11.566;2023-09-07T13:57:33;31.20;1.00
356;DHT22;62514;48.112;11.566;2023-09-07T13:59:58;31.10;1.00
356;DHT22;62514;48.112;11.566;2023-09-07T14:02:24;31.50;1.00
356;DHT22;62514;48.112;11.566;2023-09-07T14:04:50;31.70;1.00
356;DHT22;62514;48.112;11.566;2023-09-07T14:07:15;31.50;1.00
356;DHT22;62514;48.112;11.566;2023-09-07T14:09:41;31.60;1.00
356;DHT22;62514;48.112;11.566;2023-09-07T14:12:07;31.80;1.00
356;DHT22;62514;48.112;11.566;2023-09-07T14:14:32;31.00;1.00
356;DHT22;62514;48.112;11.566;2023-09-07T14:16:58;30.70;1.00
356;DHT22;62514;48.112;11.566;2023-09-07T14:19:26;30.10;1.00
356;DHT22;62514;48.112;11.566;2023-09-07T14:21:56;29.30;1.00
356;DHT22;62514;48.112;11.566;2023-09-07T14:24:23;28.50;1.00
356;DHT22;62514;48.112;11.566;2023-09-07T14:26:49;28.10;1.00
356;DHT22;62514;48.112;11.566;2023-09-07T14:29:14;27.70;1.00
356;DHT22;62514;48.112;11.566;2023-09-07T14:31:40;27.40;1.00
356;DHT22;62514;48.112;11.566;2023-09-07T14:34:08;27.10;1.00
356;DHT22;62514;48.112;11.566;2023-09-07T14:36:33;26.80;1.00
356;DHT22;62514;48.112;11.566;2023-09-07T14:38:59;26.70;1.00
356;DHT22;62514;48.112;11.566;2023-09-07T14:41:25;26.60;1.00
356;DHT22;62514;48.112;11.566;2023-09-07T14:43:50;26.40;1.00
356;DHT22;62514;48.112;11.566;2023-09-07T14:46:16;26.30;1.00
356;DHT22;62514;48.112;11.566;2023-09-07T14:48:43;26.30;1.00
356;DHT22;62514;48.112;11.566;2023-09-07T14:51:10;26.20;1.00
356;DHT22;62514;48.112;11.566;2023-09-07T14:53:35;26.10;1.00
356;DHT22;62514;48.112;11.566;2023-09-07T14:56:01;26.00;1.00
356;DHT22;62514;48.112;11.566;2023-09-07T14:58:27;26.00;1.00
356;DHT22;62514;48.112;11.566;2023-09-07T15:00:53;25.90;1.00
356;DHT22;62514;48.112;11.566;2023-09-07T15:03:18;25.90;1.00
356;DHT22;62514;48.112;11.566;2023-09-07T15:05:44;25.80;1.00
356;DHT22;62514;48.112;11.566;2023-09-07T15:08:09;25.90;1.00
356;DHT22;62514;48.112;11.566;2023-09-07T15:10:35;25.80;1.00
356;DHT22;62514;48.112;11.566;2023-09-07T15:13:01;25.80;1.00
356;DHT22;62514;48.112;11.566;2023-09-07T15:15:31;25.80;1.00
356;DHT22;62514;48.112;11.566;2023-09-07T15:18:02;25.70;1.00
356;DHT22;62514;48.112;11.566;2023-09-07T15:20:28;25.70;1.00
356;DHT22;62514;48.112;11.566;2023-09-07T15:22:56;25.60;1.00
356;DHT22;62514;48.112;11.566;2023-09-07T15:25:22;25.60;1.00
356;DHT22;62514;48.112;11.566;2023-09-07T15:27:48;25.70;1.00
356;DHT22;62514;48.112;11.566;2023-09-07T15:30:14;25.70;1.00
356;DHT22;62514;48.112;11.566;2023-09-07T15:32:40;25.70;1.00
356;DHT22;62514;48.112;11.566;2023-09-07T15:35:07;25.70;1.00
356;DHT22;62514;48.112;11.566;2023-09-07T15:37:33;25.60;1.00
356;DHT22;62514;48.112;11.566;2023-09-07T15:39:58;25.60;1.00
356;DHT22;62514;48.112;11.566;2023-09-07T15:42:24;25.50;1.00
356;DHT22;62514;48.112;11.566;2023-09-07T15:44:49;25.50;1.00
356;DHT22;62514;48.112;11.566;2023-09-07T15:47:15;25.50;1.00